createdAt,value
2022-09-06T00:00:02.025Z,20.90
2022-09-06T00:02:33.673Z,20.90
2022-09-06T00:05:01.038Z,20.90
2022-09-06T00:07:28.244Z,20.90
2022-09-06T00:09:55.509Z,20.90
2022-09-06T00:12:23.176Z,20.90
2022-09-06T00:14:50.983Z,20.80
2022-09-06T00:17:18.802Z,20.70
2022-09-06T00:19:46.049Z,20.60
2022-09-06T00:22:13.103Z,20.60
2022-09-06T00:24:40.137Z,20.60
2022-09-06T00:27:08.623Z,20.70
2022-09-06T00:29:36.227Z,20.70
2022-09-06T00:32:03.390Z,20.70
2022-09-06T00:34:30.690Z,20.70
2022-09-06T00:36:57.777Z,20.60
2022-09-06T00:39:24.888Z,20.60
2022-09-06T00:41:51.904Z,20.70
2022-09-06T00:44:18.903Z,20.60
2022-09-06T00:46:48.272Z,20.60
2022-09-06T00:49:27.962Z,20.60
2022-09-06T00:52:01.933Z,20.60
2022-09-06T00:54:29.217Z,20.60
2022-09-06T00:56:57.961Z,20.60
2022-09-06T00:59:31.469Z,20.60
2022-09-06T01:01:59.234Z,20.60
2022-09-06T01:04:27.917Z,20.60
2022-09-06T01:07:47.387Z,20.60
2022-09-06T01:10:26.314Z,20.60
2022-09-06T01:13:08.722Z,20.50
2022-09-06T01:15:42.276Z,20.40
2022-09-06T01:18:20.080Z,20.40
2022-09-06T01:21:11.130Z,20.50
2022-09-06T01:23:47.058Z,20.50
2022-09-06T01:26:47.677Z,20.50
2022-09-06T01:29:34.482Z,20.50
2022-09-06T01:32:12.328Z,20.60
2022-09-06T01:34:45.775Z,20.50
2022-09-06T01:37:17.148Z,20.50
2022-09-06T01:39:44.231Z,20.60
2022-09-06T01:42:30.268Z,20.60
2022-09-06T01:45:11.325Z,20.50
2022-09-06T01:48:07.748Z,20.50
2022-09-06T01:51:04.562Z,20.60
2022-09-06T01:53:46.441Z,20.60
2022-09-06T01:56:13.344Z,20.60
2022-09-06T01:58:52.441Z,20.50
2022-09-06T02:01:52.097Z,20.50
2022-09-06T02:04:53.129Z,20.50
2022-09-06T02:07:29.717Z,20.50
2022-09-06T02:10:07.615Z,20.40
2022-09-06T02:12:39.317Z,20.40
2022-09-06T02:15:23.710Z,20.40
2022-09-06T02:18:03.564Z,20.40
2022-09-06T02:20:35.103Z,20.30
2022-09-06T02:23:05.860Z,20.30
2022-09-06T02:25:43.481Z,20.30
2022-09-06T02:28:11.358Z,20.30
2022-09-06T02:30:47.597Z,20.20
2022-09-06T02:33:19.614Z,20.20
2022-09-06T02:35:52.900Z,20.20
2022-09-06T02:38:24.028Z,20.10
2022-09-06T02:40:54.343Z,20.00
2022-09-06T02:43:21.944Z,19.90
2022-09-06T02:45:48.993Z,19.90
2022-09-06T02:48:15.996Z,20.00
2022-09-06T02:50:43.398Z,20.00
2022-09-06T02:53:13.108Z,20.00
2022-09-06T02:55:40.871Z,20.00
2022-09-06T02:58:11.987Z,19.90
2022-09-06T03:00:40.022Z,19.80
2022-09-06T03:03:07.631Z,19.80
2022-09-06T03:05:34.659Z,19.80
2022-09-06T03:08:02.042Z,19.80
2022-09-06T03:10:29.069Z,19.80
2022-09-06T03:12:56.300Z,19.80
2022-09-06T03:15:23.285Z,19.70
2022-09-06T03:17:50.398Z,19.70
2022-09-06T03:20:17.541Z,19.60
2022-09-06T03:22:44.940Z,19.50
2022-09-06T03:25:11.985Z,19.50
2022-09-06T03:27:39.024Z,19.50
2022-09-06T03:30:07.106Z,19.40
2022-09-06T03:32:34.136Z,19.50
2022-09-06T03:35:01.236Z,19.50
2022-09-06T03:37:28.650Z,19.40
2022-09-06T03:39:55.750Z,19.40
2022-09-06T03:42:22.842Z,19.40
2022-09-06T03:44:49.896Z,19.30
2022-09-06T03:47:19.611Z,19.30
2022-09-06T03:49:47.666Z,19.30
2022-09-06T03:52:15.200Z,19.30
2022-09-06T03:54:42.252Z,19.30
2022-09-06T03:57:09.800Z,19.20
2022-09-06T03:59:37.114Z,19.10
2022-09-06T04:02:04.591Z,19.10
2022-09-06T04:04:31.645Z,19.10
2022-09-06T04:06:58.807Z,19.10
2022-09-06T04:09:25.852Z,19.00
2022-09-06T04:11:52.872Z,18.90
2022-09-06T04:14:19.888Z,18.80
2022-09-06T04:16:47.090Z,18.80
2022-09-06T04:19:14.083Z,18.80
2022-09-06T04:21:41.223Z,18.80
2022-09-06T04:24:08.445Z,18.80
2022-09-06T04:26:35.441Z,18.70
2022-09-06T04:29:02.565Z,18.70
2022-09-06T04:31:29.619Z,18.70
2022-09-06T04:33:56.734Z,18.60
2022-09-06T04:36:23.784Z,18.60
2022-09-06T04:38:50.884Z,18.60
2022-09-06T04:41:18.949Z,18.50
2022-09-06T04:43:46.096Z,18.50
2022-09-06T04:46:25.798Z,18.40
2022-09-06T04:48:54.424Z,18.40
2022-09-06T04:51:22.368Z,18.50
2022-09-06T04:53:49.484Z,18.50
2022-09-06T04:56:20.259Z,18.50
2022-09-06T04:58:48.580Z,18.60
2022-09-06T05:01:15.975Z,18.60
2022-09-06T05:03:43.254Z,18.60
2022-09-06T05:06:12.757Z,18.60
2022-09-06T05:08:41.437Z,18.70
2022-09-06T05:11:09.291Z,18.70
2022-09-06T05:13:36.283Z,18.70
2022-09-06T05:16:08.167Z,18.60
2022-09-06T05:18:35.543Z,18.60
2022-09-06T05:21:02.665Z,18.60
2022-09-06T05:23:29.774Z,18.60
2022-09-06T05:25:56.831Z,18.60
2022-09-06T05:28:23.928Z,18.60
2022-09-06T05:30:51.006Z,18.60
2022-09-06T05:33:23.147Z,18.60
2022-09-06T05:35:50.307Z,18.60
2022-09-06T05:38:17.348Z,18.60
2022-09-06T05:40:44.605Z,18.70
2022-09-06T05:43:11.647Z,18.70
2022-09-06T05:45:38.683Z,18.70
2022-09-06T05:48:05.862Z,18.80
2022-09-06T05:50:33.030Z,18.80
2022-09-06T05:53:00.145Z,18.80
2022-09-06T05:55:27.192Z,18.80
2022-09-06T05:57:54.238Z,18.90
2022-09-06T06:00:21.386Z,18.90
2022-09-06T06:02:49.423Z,19.00
2022-09-06T06:05:17.117Z,19.00
2022-09-06T06:07:44.101Z,19.10
2022-09-06T06:10:11.332Z,19.10
2022-09-06T06:12:38.284Z,19.20
2022-09-06T06:15:06.095Z,19.20
2022-09-06T06:17:33.381Z,19.20
2022-09-06T06:20:00.663Z,19.30
2022-09-06T06:22:27.797Z,19.30
2022-09-06T06:24:54.834Z,19.40
2022-09-06T06:27:22.080Z,19.40
2022-09-06T06:29:49.154Z,19.50
2022-09-06T06:32:16.254Z,19.50
2022-09-06T06:34:43.330Z,19.60
2022-09-06T06:37:10.315Z,19.70
2022-09-06T06:39:38.520Z,19.70
2022-09-06T06:42:05.882Z,19.80
2022-09-06T06:44:32.932Z,19.90
2022-09-06T06:47:02.213Z,20.00
2022-09-06T06:49:30.425Z,20.10
2022-09-06T06:51:57.454Z,20.10
2022-09-06T06:54:24.463Z,20.20
2022-09-06T06:56:52.395Z,20.30
2022-09-06T06:59:19.542Z,20.40
2022-09-06T07:01:47.134Z,20.50
2022-09-06T07:04:14.556Z,20.60
2022-09-06T07:12:42.268Z,20.80
2022-09-06T07:15:09.733Z,20.90
2022-09-06T07:17:36.844Z,21.00
2022-09-06T07:22:40.630Z,21.10
2022-09-06T07:25:09.858Z,21.20
2022-09-06T07:27:52.352Z,21.30
2022-09-06T07:30:20.393Z,21.50
2022-09-06T07:32:48.004Z,21.50
2022-09-06T07:35:15.085Z,21.60
2022-09-06T07:37:42.291Z,21.70
2022-09-06T07:40:10.485Z,21.80
2022-09-06T07:42:37.927Z,21.90
2022-09-06T07:45:06.202Z,22.00
2022-09-06T07:53:11.161Z,22.30
2022-09-06T07:55:43.062Z,22.40
2022-09-06T07:58:10.125Z,22.40
2022-09-06T08:00:38.550Z,22.50
2022-09-06T08:03:05.604Z,22.60
2022-09-06T08:11:07.901Z,22.80
2022-09-06T08:13:36.626Z,22.90
2022-09-06T08:16:09.070Z,23.00
2022-09-06T08:18:37.103Z,23.00
2022-09-06T08:21:14.523Z,23.10
2022-09-06T08:23:46.381Z,23.10
2022-09-06T08:26:13.552Z,23.20
2022-09-06T08:28:40.596Z,23.20
2022-09-06T08:31:08.723Z,23.30
2022-09-06T08:33:36.102Z,23.40
2022-09-06T08:36:03.290Z,23.50
2022-09-06T08:38:30.513Z,23.50
2022-09-06T08:41:25.328Z,23.60
2022-09-06T08:47:02.686Z,23.80
2022-09-06T08:49:32.767Z,23.80
2022-09-06T08:52:45.387Z,23.80
2022-09-06T08:55:45.817Z,23.90
2022-09-06T08:58:40.776Z,24.10
2022-09-06T09:01:14.098Z,24.10
2022-09-06T09:03:43.591Z,24.10
2022-09-06T09:06:11.674Z,24.30
2022-09-06T09:08:59.884Z,24.30
2022-09-06T09:11:26.977Z,24.40
2022-09-06T09:14:00.765Z,24.50
2022-09-06T09:16:27.992Z,24.60
2022-09-06T09:18:59.361Z,24.60
2022-09-06T09:21:30.627Z,24.70
2022-09-06T09:24:03.836Z,24.80
2022-09-06T09:26:53.714Z,24.80
2022-09-06T09:29:25.380Z,24.90
2022-09-06T09:31:55.895Z,25.10
2022-09-06T09:34:43.301Z,25.10
2022-09-06T09:40:31.347Z,25.30
2022-09-06T09:43:19.322Z,25.30
2022-09-06T09:45:57.303Z,25.40
2022-09-06T09:48:29.805Z,25.50
2022-09-06T09:50:56.957Z,25.60
2022-09-06T09:53:25.081Z,25.70
2022-09-06T09:55:57.947Z,25.80
2022-09-06T09:58:31.471Z,25.90
2022-09-06T10:01:17.437Z,25.90
2022-09-06T10:09:23.244Z,26.00
2022-09-06T10:11:57.743Z,26.10
2022-09-06T10:14:33.320Z,26.20
2022-09-06T10:17:00.986Z,26.30
2022-09-06T10:19:33.682Z,26.40
2022-09-06T10:22:11.396Z,26.50
2022-09-06T10:24:59.549Z,26.50
2022-09-06T10:27:27.848Z,26.60
2022-09-06T10:30:07.507Z,26.60
2022-09-06T10:32:41.372Z,26.80
2022-09-06T10:35:14.219Z,26.80
2022-09-06T10:37:54.131Z,26.80
2022-09-06T10:40:34.698Z,26.80
2022-09-06T10:43:03.414Z,26.90
2022-09-06T10:45:49.287Z,26.90
2022-09-06T10:48:27.756Z,27.00
2022-09-06T10:51:10.514Z,27.00
2022-09-06T10:53:57.374Z,27.00
2022-09-06T10:56:46.800Z,27.00
2022-09-06T11:02:06.689Z,27.00
2022-09-06T11:10:40.507Z,27.10
2022-09-06T11:13:17.228Z,27.20
2022-09-06T11:16:07.253Z,27.30
2022-09-06T11:19:09.846Z,27.30
2022-09-06T11:22:09.021Z,27.20
2022-09-06T11:24:45.254Z,27.30
2022-09-06T11:27:14.647Z,27.50
2022-09-06T11:29:45.345Z,27.60
2022-09-06T11:32:33.453Z,27.70
2022-09-06T11:35:04.692Z,27.90
2022-09-06T11:37:35.892Z,27.90
2022-09-06T11:40:29.005Z,27.90
2022-09-06T11:42:56.322Z,28.00
2022-09-06T11:45:49.273Z,28.20
2022-09-06T11:48:26.652Z,28.40
2022-09-06T11:50:59.856Z,28.60
2022-09-06T11:53:36.438Z,28.70
2022-09-06T11:56:03.386Z,28.80
2022-09-06T11:58:40.255Z,28.80
2022-09-06T12:01:13.365Z,28.90
2022-09-06T12:06:35.755Z,29.10
2022-09-06T12:09:23.213Z,29.30
2022-09-06T12:11:51.564Z,29.40
2022-09-06T12:14:48.363Z,29.40
2022-09-06T12:17:15.287Z,29.60
2022-09-06T12:19:53.997Z,29.70
2022-09-06T12:22:29.804Z,29.90
2022-09-06T12:24:58.342Z,30.00
2022-09-06T12:27:28.997Z,30.10
2022-09-06T12:30:02.053Z,30.20
2022-09-06T12:32:37.134Z,30.60
2022-09-06T12:38:07.145Z,31.20
2022-09-06T12:40:46.136Z,31.30
2022-09-06T12:43:15.401Z,31.30
2022-09-06T12:45:48.260Z,31.50
2022-09-06T12:48:29.153Z,31.90
2022-09-06T12:51:03.878Z,32.10
2022-09-06T12:53:32.413Z,32.30
2022-09-06T12:56:08.088Z,32.30
2022-09-06T12:58:35.999Z,32.30
2022-09-06T13:01:16.639Z,32.20
2022-09-06T13:04:08.679Z,32.20
2022-09-06T13:06:45.924Z,32.50
2022-09-06T13:09:17.952Z,32.80
2022-09-06T13:11:48.970Z,32.90
2022-09-06T13:14:28.265Z,33.00
2022-09-06T13:16:58.485Z,33.20
2022-09-06T13:19:38.124Z,33.10
2022-09-06T13:22:08.719Z,33.00
2022-09-06T13:24:35.719Z,33.20
2022-09-06T13:27:27.769Z,33.50
2022-09-06T13:29:56.927Z,33.40
2022-09-06T13:32:24.179Z,33.50
2022-09-06T13:34:57.250Z,33.70
2022-09-06T13:37:30.157Z,33.90
2022-09-06T13:39:57.958Z,34.10
2022-09-06T13:42:33.612Z,34.30
2022-09-06T13:45:28.287Z,34.40
2022-09-06T13:48:07.903Z,34.50
2022-09-06T13:50:42.857Z,34.60
2022-09-06T13:53:10.670Z,34.70
2022-09-06T13:55:37.764Z,34.60
2022-09-06T13:58:04.803Z,34.40
2022-09-06T14:00:32.071Z,34.30
2022-09-06T14:02:59.199Z,34.30
2022-09-06T14:05:26.360Z,34.30
2022-09-06T14:07:53.906Z,34.30
2022-09-06T14:10:23.965Z,34.30
2022-09-06T14:12:53.287Z,34.30
2022-09-06T14:15:20.432Z,34.30
2022-09-06T14:17:47.403Z,34.30
2022-09-06T14:20:14.402Z,34.40
2022-09-06T14:22:41.392Z,34.50
2022-09-06T14:25:09.344Z,34.50
2022-09-06T14:27:36.802Z,34.50
2022-09-06T14:30:05.022Z,34.70
2022-09-06T14:32:31.960Z,34.90
2022-09-06T14:34:58.938Z,34.90
2022-09-06T14:37:25.954Z,34.90
2022-09-06T14:39:53.864Z,35.00
2022-09-06T14:42:24.631Z,35.10
2022-09-06T14:44:52.173Z,35.20
2022-09-06T14:47:19.187Z,35.20
2022-09-06T14:49:46.138Z,35.30
2022-09-06T14:52:13.252Z,35.10
2022-09-06T14:54:40.376Z,35.20
2022-09-06T14:57:07.453Z,35.20
2022-09-06T14:59:34.471Z,35.40
2022-09-06T15:02:01.530Z,35.50
2022-09-06T15:04:29.803Z,35.40
2022-09-06T15:06:56.799Z,35.10
2022-09-06T15:09:23.812Z,35.00
2022-09-06T15:11:52.041Z,34.90
2022-09-06T15:14:20.649Z,34.70
2022-09-06T15:16:53.459Z,34.60
2022-09-06T15:19:24.745Z,34.50
2022-09-06T15:21:51.817Z,34.30
2022-09-06T15:24:19.070Z,34.10
2022-09-06T15:26:46.350Z,33.80
2022-09-06T15:29:14.412Z,33.60
2022-09-06T15:31:42.702Z,33.40
2022-09-06T15:34:10.386Z,33.10
2022-09-06T15:36:37.894Z,33.00
2022-09-06T15:39:06.371Z,32.90
2022-09-06T15:41:35.801Z,32.80
2022-09-06T15:44:17.184Z,32.70
2022-09-06T15:46:55.696Z,32.50
2022-09-06T15:49:32.062Z,32.30
2022-09-06T15:52:01.607Z,32.00
2022-09-06T15:54:48.420Z,31.90
2022-09-06T15:57:16.993Z,31.70
2022-09-06T15:59:44.701Z,31.50
2022-09-06T16:02:12.387Z,31.30
2022-09-06T16:04:39.561Z,31.10
2022-09-06T16:07:07.645Z,30.90
2022-09-06T16:09:34.816Z,30.80
2022-09-06T16:12:01.867Z,30.80
2022-09-06T16:14:29.168Z,30.70
2022-09-06T16:16:57.552Z,30.60
2022-09-06T16:19:26.195Z,30.50
2022-09-06T16:21:53.621Z,30.40
2022-09-06T16:24:21.586Z,30.40
2022-09-06T16:26:48.942Z,30.30
2022-09-06T16:29:18.322Z,30.30
2022-09-06T16:31:46.164Z,30.20
2022-09-06T16:34:14.155Z,30.10
2022-09-06T16:36:41.345Z,30.00
2022-09-06T16:39:08.962Z,29.80
2022-09-06T16:41:46.052Z,29.70
2022-09-06T16:44:19.120Z,29.60
2022-09-06T16:46:48.379Z,29.50
2022-09-06T16:49:19.613Z,29.30
2022-09-06T16:51:48.176Z,29.00
2022-09-06T16:54:16.028Z,28.70
2022-09-06T16:56:43.607Z,28.50
2022-09-06T16:59:12.087Z,28.50
2022-09-06T17:01:42.034Z,28.50
2022-09-06T17:04:10.099Z,28.50
2022-09-06T17:06:44.824Z,28.40
2022-09-06T17:09:18.864Z,28.40
2022-09-06T17:11:47.801Z,28.20
2022-09-06T17:14:14.796Z,28.10
2022-09-06T17:17:14.255Z,28.00
2022-09-06T17:19:41.691Z,28.00
2022-09-06T17:22:10.563Z,27.80
2022-09-06T17:24:38.617Z,27.80
2022-09-06T17:27:05.833Z,27.70
2022-09-06T17:29:33.316Z,27.70
2022-09-06T17:32:00.825Z,27.70
2022-09-06T17:34:27.892Z,27.60
2022-09-06T17:36:54.956Z,27.60
2022-09-06T17:39:22.008Z,27.60
2022-09-06T17:41:52.491Z,27.60
2022-09-06T17:44:25.224Z,27.50
2022-09-06T17:47:11.480Z,27.40
2022-09-06T17:49:39.784Z,27.30
2022-09-06T17:52:06.848Z,27.20
2022-09-06T17:54:33.933Z,27.00
2022-09-06T17:57:01.082Z,26.90
2022-09-06T17:59:32.837Z,26.80
2022-09-06T18:02:01.977Z,26.70
2022-09-06T18:04:29.133Z,26.60
2022-09-06T18:06:56.281Z,26.60
2022-09-06T18:09:23.223Z,26.60
2022-09-06T18:11:50.271Z,26.60
2022-09-06T18:14:20.854Z,26.60
2022-09-06T18:16:49.658Z,26.40
2022-09-06T18:19:18.033Z,26.40
2022-09-06T18:21:45.931Z,26.40
2022-09-06T18:24:14.079Z,26.30
2022-09-06T18:26:41.686Z,26.30
2022-09-06T18:29:12.249Z,26.20
2022-09-06T18:31:40.086Z,26.10
2022-09-06T18:34:09.009Z,26.00
2022-09-06T18:36:37.774Z,25.90
2022-09-06T18:39:05.691Z,25.70
2022-09-06T18:41:52.579Z,25.60
2022-09-06T18:44:19.836Z,25.50
2022-09-06T18:46:47.083Z,25.40
2022-09-06T18:49:15.259Z,25.40
2022-09-06T18:51:42.860Z,25.30
2022-09-06T18:54:11.188Z,25.40
2022-09-06T18:56:38.856Z,25.40
2022-09-06T18:59:06.254Z,25.40
2022-09-06T19:01:35.346Z,25.40
2022-09-06T19:04:03.774Z,25.40
2022-09-06T19:06:32.632Z,25.40
2022-09-06T19:09:10.870Z,25.40
2022-09-06T19:11:38.283Z,25.50
2022-09-06T19:14:05.771Z,25.50
2022-09-06T19:16:33.026Z,25.50
2022-09-06T19:19:05.695Z,25.40
2022-09-06T19:21:36.632Z,25.40
2022-09-06T19:24:08.612Z,25.40
2022-09-06T19:26:38.333Z,25.30
2022-09-06T19:29:09.182Z,25.30
2022-09-06T19:31:37.819Z,25.40
2022-09-06T19:34:05.307Z,25.40
2022-09-06T19:36:32.793Z,25.30
2022-09-06T19:39:08.489Z,25.20
2022-09-06T19:41:41.855Z,25.10
2022-09-06T19:44:11.257Z,25.10
2022-09-06T19:46:40.871Z,25.00
2022-09-06T19:49:09.994Z,25.10
2022-09-06T19:51:37.470Z,25.20
2022-09-06T19:54:04.871Z,25.10
2022-09-06T19:56:34.435Z,25.10
2022-09-06T19:59:04.844Z,25.20
2022-09-06T20:01:33.430Z,25.10
2022-09-06T20:04:03.004Z,25.10
2022-09-06T20:06:30.513Z,25.10
2022-09-06T20:08:59.372Z,25.10
2022-09-06T20:11:28.600Z,25.20
2022-09-06T20:13:56.153Z,25.20
2022-09-06T20:16:25.049Z,25.30
2022-09-06T20:18:54.042Z,25.20
2022-09-06T20:21:21.279Z,25.30
2022-09-06T20:23:56.404Z,25.30
2022-09-06T20:26:24.666Z,25.30
2022-09-06T20:28:59.393Z,25.20
2022-09-06T20:31:28.545Z,25.20
2022-09-06T20:33:56.183Z,25.20
2022-09-06T20:36:23.401Z,25.10
2022-09-06T20:38:51.140Z,25.20
2022-09-06T20:41:21.202Z,25.20
2022-09-06T20:43:53.371Z,25.30
2022-09-06T20:46:23.229Z,25.30
2022-09-06T20:48:50.769Z,25.30
2022-09-06T20:51:20.121Z,25.30
2022-09-06T20:53:50.968Z,25.30
2022-09-06T20:56:21.186Z,25.20
2022-09-06T20:58:53.159Z,25.20
2022-09-06T21:01:23.100Z,25.20
2022-09-06T21:03:56.016Z,25.10
2022-09-06T21:06:24.049Z,25.10
2022-09-06T21:08:51.724Z,25.10
2022-09-06T21:11:19.345Z,25.10
2022-09-06T21:13:55.936Z,25.10
2022-09-06T21:16:28.423Z,25.10
2022-09-06T21:18:57.834Z,25.10
2022-09-06T21:21:26.089Z,25.10
2022-09-06T21:23:53.455Z,25.10
2022-09-06T21:26:21.931Z,25.10
2022-09-06T21:28:50.034Z,25.00
2022-09-06T21:31:25.628Z,25.00
2022-09-06T21:33:56.116Z,25.00
2022-09-06T21:36:30.199Z,25.00
2022-09-06T21:39:09.800Z,24.90
2022-09-06T21:41:42.551Z,24.80
2022-09-06T21:44:10.599Z,24.80
2022-09-06T21:46:39.695Z,24.80
2022-09-06T21:49:09.975Z,24.80
2022-09-06T21:51:37.876Z,24.60
2022-09-06T21:54:06.013Z,24.60
2022-09-06T21:56:34.648Z,24.50
2022-09-06T21:59:02.624Z,24.50
2022-09-06T22:01:32.220Z,24.40
2022-09-06T22:04:00.275Z,24.30
2022-09-06T22:06:29.461Z,24.20
2022-09-06T22:08:58.452Z,24.00
2022-09-06T22:11:27.557Z,23.70
2022-09-06T22:13:57.957Z,23.50
2022-09-06T22:16:25.314Z,23.40
2022-09-06T22:18:52.385Z,23.30
2022-09-06T22:21:21.409Z,23.20
2022-09-06T22:23:53.379Z,23.10
2022-09-06T22:26:21.033Z,22.90
2022-09-06T22:28:52.377Z,22.70
2022-09-06T22:31:19.342Z,22.70
2022-09-06T22:33:46.365Z,22.60
2022-09-06T22:36:13.391Z,22.60
2022-09-06T22:38:40.400Z,22.60
2022-09-06T22:41:07.480Z,22.60
2022-09-06T22:43:34.454Z,22.60
2022-09-06T22:46:06.259Z,22.50
2022-09-06T22:48:34.566Z,22.50
2022-09-06T22:51:02.725Z,22.20
2022-09-06T22:53:30.902Z,22.20
2022-09-06T22:55:57.950Z,22.00
2022-09-06T22:58:27.157Z,22.00
2022-09-06T23:00:54.910Z,22.00
2022-09-06T23:03:22.473Z,22.00
2022-09-06T23:05:49.648Z,22.10
2022-09-06T23:08:16.765Z,22.00
2022-09-06T23:10:44.413Z,21.90
2022-09-06T23:13:11.958Z,21.90
2022-09-06T23:15:46.235Z,21.90
2022-09-06T23:18:14.309Z,21.90
2022-09-06T23:20:41.454Z,21.80
2022-09-06T23:23:08.832Z,21.60
2022-09-06T23:25:39.282Z,21.50
2022-09-06T23:28:07.097Z,21.50
2022-09-06T23:30:38.014Z,21.50
2022-09-06T23:33:05.393Z,21.50
2022-09-06T23:35:32.429Z,21.50
2022-09-06T23:37:59.455Z,21.50
2022-09-06T23:40:26.478Z,21.50
2022-09-06T23:42:53.469Z,21.40
2022-09-06T23:45:20.676Z,21.50
2022-09-06T23:47:47.663Z,21.40
2022-09-06T23:50:15.495Z,21.40
2022-09-06T23:52:42.480Z,21.40
2022-09-06T23:55:09.885Z,21.40
2022-09-06T23:57:36.984Z,21.30
